Time;durP1;ratioP1;P1;durP2;ratioP2;P2;SDS_P1;SDS_P2;PMS_P1;PMS_P2;Temp;Humidity;BMP_temperature;BMP_pressure;BME280_temperature;BME280_humidity;BME280_pressure;Samples;Min_cycle;Max_cycle;Signal;HPM_P1;HPM_P2
2021/03/08 00:00:50;;;;;;;34.83;19.80;;;;;;;0.92;77.18;102357.94;12868358;23;20042;-79
2021/03/08 00:05:51;;;;;;;32.65;18.88;;;;;;;0.75;77.76;102332.31;12783641;23;20769;-79
2021/03/08 00:10:54;;;;;;;34.13;20.45;;;;;;;1.27;77.85;102392.81;12753478;23;20021;-80
2021/03/08 00:15:55;;;;;;;38.10;20.00;;;;;;;0.41;78.38;102247.44;12776139;23;20591;-81
2021/03/08 00:20:58;;;;;;;34.80;19.45;;;;;;;1.42;78.42;102384.09;12756591;23;20008;-79
2021/03/08 00:25:58;;;;;;;35.70;19.63;;;;;;;1.52;77.93;102399.31;12755533;23;20304;-79
2021/03/08 00:30:59;;;;;;;36.08;20.58;;;;;;;1.15;78.44;102325.59;12775569;23;20024;-78
2021/03/08 00:35:59;;;;;;;33.33;18.52;;;;;;;1.61;77.96;102413.75;12780333;23;20396;-79
2021/03/08 00:41:00;;;;;;;33.38;18.45;;;;;;;1.40;78.27;102369.41;12757164;23;20016;-78
2021/03/08 00:46:00;;;;;;;37.97;21.13;;;;;;;1.09;78.82;102293.88;12817017;23;20062;-78
2021/03/08 00:51:01;;;;;;;34.22;19.40;;;;;;;0.55;78.55;102199.91;12769713;23;20017;-80
2021/03/08 00:56:02;;;;;;;34.03;20.40;;;;;;;1.56;78.82;102346.31;12793993;23;20030;-80
2021/03/08 01:01:03;;;;;;;31.27;18.42;;;;;;;1.66;78.89;102362.34;12795917;23;20725;-79
2021/03/08 01:06:04;;;;;;;35.00;19.73;;;;;;;1.89;79.05;102387.75;12791097;23;20096;-80
2021/03/08 01:11:05;;;;;;;37.63;22.10;;;;;;;1.87;79.77;102381.88;12771494;23;20467;-80
2021/03/08 01:16:05;;;;;;;38.95;21.65;;;;;;;1.63;79.35;102321.00;12745489;23;20016;-80
2021/03/08 01:21:06;;;;;;;39.85;22.00;;;;;;;2.11;80.10;102380.31;12780883;23;20463;-79
2021/03/08 01:26:07;;;;;;;40.45;23.10;;;;;;;1.79;80.26;102305.88;12754857;23;20047;-79
2021/03/08 01:31:07;;;;;;;39.25;21.75;;;;;;;2.27;79.78;102367.00;12748643;23;20385;-81
2021/03/08 01:36:08;;;;;;;41.83;22.67;;;;;;;2.08;80.23;102338.16;12773477;23;20028;-79
2021/03/08 01:41:09;;;;;;;39.70;21.98;;;;;;;2.37;80.18;102367.00;12728821;23;20859;-79
2021/03/08 01:46:11;;;;;;;40.35;22.92;;;;;;;1.91;80.28;102289.63;12784560;23;20024;-79
2021/03/08 01:51:12;;;;;;;47.80;24.25;;;;;;;2.46;80.68;102364.63;12817420;23;20027;-79
2021/03/08 01:56:12;;;;;;;44.83;24.75;;;;;;;2.51;80.31;102368.09;12794013;23;20034;-77
2021/03/08 02:01:13;;;;;;;41.85;24.35;;;;;;;2.36;80.93;102338.75;12766017;23;20092;-78
2021/03/08 02:06:14;;;;;;;46.67;24.23;;;;;;;2.09;81.24;102259.75;12821659;23;20096;-79
2021/03/08 02:11:15;;;;;;;41.03;24.67;;;;;;;2.36;81.15;102296.03;12790191;23;20355;-77
2021/03/08 02:16:43;;;;;;;47.55;26.92;;;;;;;2.48;81.56;102315.25;12791906;23;20020;-78
2021/03/08 02:21:52;;;;;;;50.35;27.70;;;;;;;2.69;82.16;102336.59;12766418;23;20028;-79
2021/03/08 02:27:13;;;;;;;51.20;27.93;;;;;;;2.36;82.07;102285.38;12789006;23;20009;-78
2021/03/08 02:32:15;;;;;;;53.72;30.13;;;;;;;2.60;82.44;102316.84;12768505;23;20008;-79
2021/03/08 02:37:24;;;;;;;50.67;29.35;;;;;;;2.73;82.76;102327.00;12769565;23;20011;-77
2021/03/08 02:42:28;;;;;;;51.05;29.70;;;;;;;2.65;84.40;102324.84;12747293;23;20005;-78
2021/03/08 02:47:32;;;;;;;56.25;30.85;;;;;;;2.60;84.45;102306.97;12823609;23;20012;-78
2021/03/08 02:52:35;;;;;;;52.38;29.60;;;;;;;2.72;85.75;102317.34;12786515;23;20528;-80
2021/03/08 02:57:39;;;;;;;54.25;29.95;;;;;;;2.31;86.38;102232.00;12820545;23;20080;-79
2021/03/08 03:02:41;;;;;;;56.42;29.85;;;;;;;2.75;86.00;102314.13;12824548;23;20678;-78
2021/03/08 03:07:48;;;;;;;55.97;30.98;;;;;;;2.84;86.21;102317.88;12745434;23;20016;-80
2021/03/08 03:12:48;;;;;;;55.97;30.58;;;;;;;2.39;86.21;102252.78;12796394;23;20503;-77
2021/03/08 03:17:50;;;;;;;58.50;32.63;;;;;;;2.40;86.11;102254.41;12794847;23;20020;-79
2021/03/08 03:22:52;;;;;;;51.70;29.33;;;;;;;2.50;85.52;102281.09;12794261;23;20553;-81
2021/03/08 03:27:53;;;;;;;58.67;32.72;;;;;;;2.65;85.71;102287.47;12796641;23;20107;-79
2021/03/08 03:32:54;;;;;;;54.90;31.73;;;;;;;2.40;85.89;102249.06;12821492;23;20739;-80
2021/03/08 03:37:56;;;;;;;56.45;31.83;;;;;;;2.82;86.13;102308.53;12796339;23;20009;-79
2021/03/08 03:42:56;;;;;;;61.03;32.70;;;;;;;2.87;86.85;102322.69;12821891;23;20143;-78
2021/03/08 03:47:57;;;;;;;57.65;32.05;;;;;;;2.02;86.87;102195.22;12822659;23;20092;-80
2021/03/08 03:52:57;;;;;;;59.95;32.42;;;;;;;2.59;86.60;102277.84;12823115;23;20364;-78
2021/03/08 03:58:01;;;;;;;60.38;33.67;;;;;;;2.88;86.92;102320.81;12796218;23;20019;-79
2021/03/08 04:03:06;;;;;;;59.15;32.80;;;;;;;2.33;86.82;102243.22;12819967;23;20004;-80
2021/03/08 04:08:09;;;;;;;58.72;33.78;;;;;;;2.80;87.45;102306.16;12814389;23;20083;-79
2021/03/08 04:13:14;;;;;;;59.13;32.83;;;;;;;2.91;87.22;102361.13;12823341;23;20520;-79
2021/03/08 04:18:15;;;;;;;59.85;33.80;;;;;;;2.71;87.22;102297.09;12819810;23;20347;-79
2021/03/08 04:23:16;;;;;;;56.28;32.47;;;;;;;2.92;87.59;102336.03;12771444;23;20020;-78
2021/03/08 04:28:17;;;;;;;64.40;34.03;;;;;;;2.94;87.78;102333.09;12793033;23;20718;-78
2021/03/08 04:33:18;;;;;;;56.85;32.88;;;;;;;2.71;87.54;102297.09;12819809;23;20058;-78
2021/03/08 04:38:19;;;;;;;59.25;33.17;;;;;;;2.95;87.70;102332.81;12768829;23;20011;-77
2021/03/08 04:43:26;;;;;;;59.97;33.70;;;;;;;2.47;88.21;102270.94;12823369;23;20020;-77
2021/03/08 04:48:27;;;;;;;58.95;33.08;;;;;;;2.81;88.58;102318.41;12833488;23;20024;-78
2021/03/08 04:53:30;;;;;;;60.97;34.17;;;;;;;2.78;88.43;102318.97;12814935;23;20751;-77
2021/03/08 04:58:31;;;;;;;59.33;34.40;;;;;;;2.34;89.13;102239.47;12815920;23;20082;-78
2021/03/08 05:03:35;;;;;;;63.20;34.65;;;;;;;2.97;88.83;102354.72;12791747;23;20497;-78
2021/03/08 05:08:37;;;;;;;55.40;32.85;;;;;;;2.82;88.70;102330.69;12820318;23;20019;-78
2021/03/08 05:13:38;;;;;;;55.63;32.03;;;;;;;2.50;88.59;102270.41;12790019;23;20894;-78
2021/03/08 05:18:40;;;;;;;55.35;33.17;;;;;;;2.90;88.47;102322.13;12804423;23;20024;-78
2021/03/08 05:23:47;;;;;;;59.83;34.50;;;;;;;2.83;87.67;102310.94;12783442;23;20707;-77
2021/03/08 05:28:49;;;;;;;54.45;31.35;;;;;;;2.88;87.63;102318.94;12782058;23;20012;-73
2021/03/08 05:33:55;;;;;;;58.90;31.52;;;;;;;3.05;86.82;102333.84;12778001;23;20104;-73
2021/03/08 05:38:56;;;;;;;51.30;30.50;;;;;;;2.61;86.65;102259.69;12755141;23;20079;-76
2021/03/08 05:44:05;;;;;;;52.50;31.17;;;;;;;2.68;86.50;102270.91;12750765;23;20032;-78
2021/03/08 05:49:39;;;;;;;54.38;30.83;;;;;;;3.11;85.37;102343.47;12809131;23;20024;-78
2021/03/08 05:55:15;;;;;;;61.15;31.83;;;;;;;2.78;85.06;102286.91;12810167;23;20017;-79
2021/03/08 06:00:26;;;;;;;53.00;30.75;;;;;;;3.12;84.06;102334.38;12774012;23;20411;-76
2021/03/08 06:06:05;;;;;;;55.88;29.70;;;;;;;3.21;83.36;102338.09;12797981;23;20066;-75
2021/03/08 06:11:08;;;;;;;55.00;32.53;;;;;;;2.38;81.84;102218.38;12794483;23;20055;-75
2021/03/08 06:16:10;;;;;;;;;;;;;;;2.92;81.96;102287.94;12770749;23;20027;-75
2021/03/08 06:21:13;;;;;;;55.65;28.73;;;;;;;3.34;82.20;102347.38;12776647;23;20301;-75
2021/03/08 06:26:14;;;;;;;54.22;29.00;;;;;;;3.11;81.70;102311.41;12777079;23;20097;-75
2021/03/08 06:31:17;;;;;;;48.77;28.90;;;;;;;2.99;81.40;102281.50;12719240;23;20004;-75
2021/03/08 06:36:20;;;;;;;48.78;28.05;;;;;;;3.38;81.62;102343.91;12798025;23;20032;-75
2021/03/08 06:41:20;;;;;;;50.10;28.88;;;;;;;3.50;81.84;102345.47;12783189;23;20636;-75
2021/03/08 06:46:21;;;;;;;50.83;30.08;;;;;;;3.49;83.25;102343.88;12804341;23;20107;-75
2021/03/08 06:51:24;;;;;;;56.05;32.22;;;;;;;3.45;85.09;102326.78;12754131;23;20063;-75
2021/03/08 06:56:28;;;;;;;;;;;;;;;3.71;87.46;102357.66;12741103;23;20036;-76
2021/03/08 07:01:33;;;;;;;60.03;32.60;;;;;;;3.33;88.65;102287.78;12780050;23;19907;-75
2021/03/08 07:06:35;;;;;;;60.72;33.08;;;;;;;3.69;88.31;102341.13;12756021;23;20005;-76
2021/03/08 07:11:36;;;;;;;60.88;32.42;;;;;;;3.20;87.57;102245.66;12782097;23;20013;-76
2021/03/08 07:16:38;;;;;;;56.40;32.80;;;;;;;3.60;85.45;102302.66;12774641;23;20008;-78
2021/03/08 07:21:39;;;;;;;54.75;32.08;;;;;;;3.74;84.40;102303.63;12805113;23;20085;-75
2021/03/08 07:27:04;;;;;;;54.45;32.22;;;;;;;4.20;84.12;102375.56;12805537;23;20012;-75
2021/03/08 07:32:13;;;;;;;56.33;33.17;;;;;;;3.76;84.03;102325.56;12804388;23;20304;-75
2021/03/08 07:37:14;;;;;;;52.05;31.38;;;;;;;3.81;84.83;102346.94;12811783;23;20009;-76
2021/03/08 07:42:15;;;;;;;58.03;32.92;;;;;;;3.28;85.48;102295.84;12777891;23;20012;-75
2021/03/08 07:47:19;;;;;;;59.92;32.50;;;;;;;3.68;85.19;102342.19;12818390;23;20021;-75
2021/03/08 07:52:20;;;;;;;49.53;28.02;;;;;;;3.92;84.23;102362.91;12817641;23;20027;-75
2021/03/08 07:57:23;;;;;;;48.17;27.70;;;;;;;4.21;82.46;102387.91;12784001;23;20509;-75
2021/03/08 08:02:25;;;;;;;41.38;26.40;;;;;;;4.03;79.59;102356.44;12813643;23;20009;-77
2021/03/08 08:07:27;;;;;;;41.22;25.55;;;;;;;4.20;78.93;102380.94;12760450;23;20009;-75
2021/03/08 08:12:33;;;;;;;45.17;26.60;;;;;;;3.72;78.76;102319.16;12766469;23;20008;-75
2021/03/08 08:17:36;;;;;;;46.65;27.70;;;;;;;3.93;80.07;102332.44;12781238;23;20008;-75
2021/03/08 08:22:50;;;;;;;42.97;25.70;;;;;;;4.02;79.90;102336.91;12812602;23;20354;-76
2021/03/08 08:27:51;;;;;;;41.33;25.65;;;;;;;4.48;78.10;102397.34;12784498;23;20011;-75
2021/03/08 08:32:57;;;;;;;44.67;28.10;;;;;;;4.41;78.00;102370.09;12810395;23;20847;-75
2021/03/08 08:38:08;;;;;;;49.88;29.08;;;;;;;4.67;77.45;102410.84;12803919;23;20008;-77
2021/03/08 08:43:15;;;;;;;44.97;27.35;;;;;;;4.81;77.36;102411.03;12813129;23;20764;-75
2021/03/08 08:48:17;;;;;;;46.83;27.40;;;;;;;4.33;77.23;102311.81;12811022;23;20005;-77
2021/03/08 08:53:30;;;;;;;47.50;28.13;;;;;;;5.66;74.54;102409.59;12809552;23;20009;-75
2021/03/08 08:58:44;;;;;;;;;;;;;;;6.00;73.38;102403.31;12807902;23;20009;-75
2021/03/08 09:04:01;;;;;;;46.40;28.90;;;;;;;6.60;70.85;102411.53;12821429;23;19942;-76
2021/03/08 09:14:53;;;;;;;37.22;24.48;;;;;;;10.67;53.18;102407.63;12811911;23;20028;-77
2021/03/08 09:19:56;;;;;;;37.95;25.13;;;;;;;11.91;49.08;102405.69;12567453;23;20491;-80
2021/03/08 09:25:00;;;;;;;36.25;25.38;;;;;;;11.98;46.99;102348.25;12626572;23;20054;-77
2021/03/08 09:30:04;;;;;;;38.85;26.08;;;;;;;12.27;47.58;102391.53;12603047;23;20398;-78
2021/03/08 09:35:09;;;;;;;37.80;24.98;;;;;;;12.75;45.23;102383.09;12585796;23;20018;-77
2021/03/08 09:40:13;;;;;;;36.63;25.33;;;;;;;13.28;43.85;102375.91;12628336;23;20017;-77
2021/03/08 09:45:16;;;;;;;36.30;24.58;;;;;;;13.11;44.38;102374.97;12628859;23;20018;-77
2021/03/08 09:50:40;;;;;;;34.42;24.58;;;;;;;12.14;46.16;102359.28;12766680;23;20112;-76
2021/03/08 09:55:40;;;;;;;37.85;25.83;;;;;;;11.17;48.18;102323.09;12771442;23;20020;-77
2021/03/08 10:00:45;;;;;;;36.38;24.25;;;;;;;11.41;47.50;102317.88;12816033;23;20713;-78
2021/03/08 10:05:50;;;;;;;31.95;22.80;;;;;;;11.90;46.62;102384.31;12821802;23;20078;-77
2021/03/08 10:10:52;;;;;;;35.75;23.75;;;;;;;11.62;44.46;102317.88;12820118;23;20008;-76
2021/03/08 10:15:57;;;;;;;28.48;21.08;;;;;;;11.05;44.67;102320.28;12772593;23;20012;-77
2021/03/08 10:21:03;;;;;;;32.60;19.10;;;;;;;11.91;42.46;102372.38;12743555;23;20008;-77
2021/03/08 10:26:07;;;;;;;27.17;19.63;;;;;;;12.13;41.39;102374.72;12794762;23;20427;-77
2021/03/08 10:31:21;;;;;;;29.88;21.02;;;;;;;11.31;43.20;102372.41;12791606;23;20042;-76
2021/03/08 10:36:24;;;;;;;35.72;23.23;;;;;;;10.92;43.83;102376.22;12789010;23;20447;-76
2021/03/08 10:41:26;;;;;;;42.17;23.15;;;;;;;10.25;45.32;102326.25;12764797;23;20067;-77
2021/03/08 10:46:31;;;;;;;37.87;23.27;;;;;;;10.05;46.57;102301.47;12815885;23;20595;-77
2021/03/08 10:51:32;;;;;;;40.47;23.92;;;;;;;10.05;48.17;102387.94;12793599;23;20073;-76
2021/03/08 10:56:36;;;;;;;40.67;23.73;;;;;;;9.74;49.34;102367.25;12817820;23;20043;-76
2021/03/08 11:01:36;;;;;;;39.03;24.92;;;;;;;9.16;51.50;102379.16;12820456;23;20066;-74
2021/03/08 11:06:44;;;;;;;45.45;26.00;;;;;;;8.37;52.19;102235.09;12817448;23;20021;-75
2021/03/08 11:11:44;;;;;;;38.38;25.60;;;;;;;8.91;52.09;102339.38;12816195;23;20106;-74
2021/03/08 11:16:53;;;;;;;42.05;27.52;;;;;;;8.71;53.86;102346.91;12814516;23;20510;-74
2021/03/08 11:22:05;;;;;;;43.05;27.63;;;;;;;8.88;55.19;102378.56;12787257;23;20009;-74
2021/03/08 11:27:06;;;;;;;40.73;26.43;;;;;;;8.96;54.28;102412.06;12820117;23;20008;-74
2021/03/08 11:32:09;;;;;;;43.47;26.97;;;;;;;9.44;53.49;102371.63;12788884;23;20327;-75
2021/03/08 11:37:15;;;;;;;38.40;24.87;;;;;;;8.91;53.57;102315.09;12767568;23;674728;-74
2021/03/08 11:42:17;;;;;;;39.33;24.83;;;;;;;8.84;54.25;102343.34;12819924;23;20595;-75
2021/03/08 11:47:18;;;;;;;42.97;24.73;;;;;;;9.02;55.01;102367.69;12822899;23;20039;-75
2021/03/08 11:52:19;;;;;;;38.25;23.15;;;;;;;8.72;54.72;102278.38;12820892;23;20968;-75
2021/03/08 11:57:19;;;;;;;34.03;21.70;;;;;;;9.13;53.96;102325.84;12797882;23;20013;-75
2021/03/08 12:02:20;;;;;;;33.17;21.65;;;;;;;9.54;53.27;102351.66;12818825;23;20202;-75
2021/03/08 12:07:21;;;;;;;35.35;24.65;;;;;;;9.30;53.78;102358.25;12823344;23;20106;-75
2021/03/08 12:12:21;;;;;;;34.30;22.55;;;;;;;9.47;54.25;102345.91;12826108;23;20542;-75
2021/03/08 12:17:22;;;;;;;34.75;22.23;;;;;;;9.84;53.53;102349.16;12795368;23;20340;-73
2021/03/08 12:22:23;;;;;;;31.35;20.33;;;;;;;9.50;52.74;102307.47;12774331;23;20050;-74
2021/03/08 12:27:24;;;;;;;30.65;19.50;;;;;;;9.74;52.86;102329.44;12795202;23;20103;-73
2021/03/08 12:32:25;;;;;;;32.08;20.25;;;;;;;9.86;51.88;102303.72;12822608;23;20025;-74
2021/03/08 12:37:26;;;;;;;27.85;18.25;;;;;;;9.97;51.39;102310.41;12797683;23;20448;-75
2021/03/08 12:42:26;;;;;;;31.00;17.52;;;;;;;9.97;50.29;102315.81;12829389;23;20032;-73
2021/03/08 12:47:27;;;;;;;25.67;16.98;;;;;;;9.97;50.67;102305.00;12798294;23;20741;-73
2021/03/08 12:52:30;;;;;;;27.80;17.42;;;;;;;9.76;51.40;102309.41;12797921;23;20004;-74
2021/03/08 12:57:32;;;;;;;29.73;17.05;;;;;;;9.59;50.39;102257.00;12774592;23;20124;-74
2021/03/08 13:02:33;;;;;;;23.97;15.77;;;;;;;9.57;49.94;102210.66;12768387;23;20012;-74
2021/03/08 13:07:33;;;;;;;26.20;16.70;;;;;;;10.30;49.54;102274.75;12820197;23;20450;-75
2021/03/08 13:12:34;;;;;;;30.48;16.58;;;;;;;10.16;49.24;102243.28;12797130;23;20023;-74
2021/03/08 13:17:36;;;;;;;25.63;16.67;;;;;;;10.00;49.58;102271.94;12822904;23;20036;-74
2021/03/08 13:22:38;;;;;;;26.07;16.23;;;;;;;10.12;49.58;102236.94;12772529;23;20452;-74
2021/03/08 13:27:43;;;;;;;27.70;16.17;;;;;;;10.66;48.41;102270.84;12797529;23;20025;-78
2021/03/08 13:32:45;;;;;;;23.33;15.60;;;;;;;10.18;48.69;102228.66;12790688;23;20562;-80
2021/03/08 13:37:46;;;;;;;26.30;15.75;;;;;;;10.24;48.61;102249.00;12800540;23;20147;-78
2021/03/08 13:43:02;;;;;;;28.83;16.33;;;;;;;9.73;50.11;102189.34;12818236;23;20011;-80
2021/03/08 13:49:03;;;;;;;25.48;16.98;;;;;;;10.35;48.69;102250.28;12822907;23;20649;-77
2021/03/08 13:54:06;;;;;;;26.58;15.77;;;;;;;10.08;50.80;102230.56;12791723;23;20505;-77
2021/03/08 13:59:08;;;;;;;25.35;15.30;;;;;;;10.18;50.19;102244.88;12818746;23;20052;-78
2021/03/08 14:04:09;;;;;;;24.02;15.45;;;;;;;10.30;50.21;102243.13;12797470;23;20091;-77
2021/03/08 14:09:11;;;;;;;25.48;14.48;;;;;;;10.06;48.71;102243.63;12772746;23;20127;-77
2021/03/08 14:14:13;;;;;;;29.08;16.27;;;;;;;9.60;49.91;102188.41;12822431;23;20110;-77
2021/03/08 14:19:14;;;;;;;23.75;14.55;;;;;;;9.89;49.66;102216.63;12793947;23;20005;-77
2021/03/08 14:24:15;;;;;;;27.73;14.45;;;;;;;9.68;49.71;102221.91;12818246;23;20113;-76
2021/03/08 14:29:20;;;;;;;22.75;13.10;;;;;;;9.70;49.29;102198.88;12819298;23;20016;-76
2021/03/08 14:34:25;;;;;;;24.33;15.30;;;;;;;9.92;51.25;102210.59;12819908;23;20059;-73
2021/03/08 14:39:32;;;;;;;28.15;16.13;;;;;;;9.62;51.86;102148.38;12834366;23;20435;-73
2021/03/08 14:44:38;;;;;;;26.17;16.33;;;;;;;10.04;52.05;102210.75;12818805;23;20067;-73
2021/03/08 14:49:42;;;;;;;25.75;15.15;;;;;;;10.09;51.32;102177.34;12794975;23;20036;-74
2021/03/08 14:54:53;;;;;;;21.25;13.93;;;;;;;10.10;51.20;102195.94;12819676;23;20013;-73
2021/03/08 15:00:02;;;;;;;26.48;16.20;;;;;;;9.91;51.39;102190.09;12797672;23;20548;-73
2021/03/08 15:05:05;;;;;;;23.30;15.27;;;;;;;9.59;52.44;102134.72;12812524;23;20679;-86
2021/03/08 15:10:08;;;;;;;26.50;15.13;;;;;;;8.92;52.13;102065.91;12782381;23;20807;-81
2021/03/08 15:15:12;;;;;;;27.80;16.60;;;;;;;9.53;51.76;102182.69;12734077;23;20404;-80
2021/03/08 15:20:14;;;;;;;27.33;15.55;;;;;;;9.25;53.70;102177.63;12797331;23;20027;-81
2021/03/08 15:25:16;;;;;;;34.47;17.45;;;;;;;9.10;54.34;102183.47;12780156;23;20024;-81
2021/03/08 15:30:38;;;;;;;24.98;16.52;;;;;;;9.21;55.33;102171.25;12776401;23;20726;-79
2021/03/08 15:35:39;;;;;;;30.50;18.40;;;;;;;8.24;55.87;102063.56;12782330;23;20019;-78
2021/03/08 15:40:59;;;;;;;34.35;17.55;;;;;;;9.06;56.41;102166.34;12807923;23;20017;-79
2021/03/08 15:46:00;;;;;;;28.23;16.10;;;;;;;8.54;56.86;102098.88;12757104;23;19997;-82
2021/03/08 15:51:01;;;;;;;27.65;17.42;;;;;;;8.78;57.72;102163.13;12783113;23;20413;-81
2021/03/08 15:56:02;;;;;;;31.35;16.13;;;;;;;8.28;58.54;102072.63;12714173;23;20023;-80
2021/03/08 16:01:04;;;;;;;29.40;18.00;;;;;;;8.71;58.75;102168.97;12779923;23;20021;-81
2021/03/08 16:06:07;;;;;;;29.25;16.92;;;;;;;8.46;59.16;102122.75;12742061;23;20023;-81
2021/03/08 16:11:10;;;;;;;27.98;16.35;;;;;;;8.62;59.77;102160.06;12783040;23;20005;-80
2021/03/08 16:16:13;;;;;;;34.20;19.20;;;;;;;8.45;59.85;102150.03;12801871;23;20354;-80
2021/03/08 16:21:14;;;;;;;33.13;16.73;;;;;;;8.12;60.75;102136.09;12780029;23;20079;-77
2021/03/08 16:26:17;;;;;;;26.50;17.85;;;;;;;8.24;61.70;102155.16;12737905;23;20012;-88
2021/03/08 16:31:20;;;;;;;;;;;;;;;8.09;62.83;102147.47;12734619;23;20594;-78
2021/03/08 16:36:21;;;;;;;26.17;16.20;;;;;;;8.13;62.57;102148.44;12766366;23;20411;-79
2021/03/08 16:41:22;;;;;;;35.67;19.23;;;;;;;7.78;63.14;102106.00;12789539;23;20046;-81
2021/03/08 16:46:22;;;;;;;31.50;18.55;;;;;;;7.60;63.56;102094.34;12819485;23;20111;-79
2021/03/08 16:51:23;;;;;;;35.83;18.58;;;;;;;7.72;64.78;102149.50;12835799;23;20009;-81
2021/03/08 16:56:38;;;;;;;32.35;17.58;;;;;;;6.96;67.22;102069.50;12844350;23;20009;-82
2021/03/08 17:23:07;;;;;;;36.45;18.70;;;;;;;6.98;68.11;102123.78;12831720;23;20020;-82
2021/03/08 17:28:15;;;;;;;31.63;18.10;;;;;;;6.96;68.11;102140.22;12801706;23;20014;-83
2021/03/08 17:33:16;;;;;;;28.92;17.23;;;;;;;6.69;69.20;102130.31;12816797;23;20679;-83
2021/03/08 17:38:17;;;;;;;30.80;18.17;;;;;;;6.65;69.81;102112.41;12759522;23;20092;-82
2021/03/08 17:43:21;;;;;;;30.40;17.80;;;;;;;6.94;70.13;102152.38;12758658;23;20032;-80
2021/03/08 17:48:33;;;;;;;31.55;18.67;;;;;;;6.73;69.84;102123.25;12788827;23;20141;-84
2021/03/08 17:53:40;;;;;;;29.95;17.63;;;;;;;6.46;69.92;102072.22;12807862;23;20020;-84
2021/03/08 17:58:43;;;;;;;27.63;18.50;;;;;;;6.87;70.45;102162.75;12784648;23;20027;-85
2021/03/08 18:03:45;;;;;;;31.60;18.65;;;;;;;6.90;71.08;102162.16;12759647;23;20331;-79
2021/03/08 18:08:49;;;;;;;29.97;17.60;;;;;;;5.28;71.87;101916.19;12802779;23;20015;-82
2021/03/08 18:13:52;;;;;;;34.83;17.50;;;;;;;6.56;72.29;102125.72;12814543;23;20031;-84
2021/03/08 18:18:52;;;;;;;31.92;17.98;;;;;;;6.46;73.07;102142.84;12765654;23;20062;-82
2021/03/08 18:23:59;;;;;;;25.85;16.30;;;;;;;6.30;73.33;102123.59;12755210;23;20032;-87
2021/03/08 18:29:09;;;;;;;28.40;16.27;;;;;;;6.20;70.66;102118.38;12800015;23;20025;-83
2021/03/08 18:34:09;;;;;;;23.77;14.13;;;;;;;6.27;68.73;102128.75;12807841;23;19997;-81
2021/03/08 18:39:11;;;;;;;27.20;15.00;;;;;;;6.44;68.53;102165.75;12792332;23;20016;-84
2021/03/08 18:44:15;;;;;;;30.13;15.10;;;;;;;6.01;68.83;102105.06;12785935;23;20004;-82
2021/03/08 18:49:18;;;;;;;26.50;14.13;;;;;;;6.33;68.78;102155.19;12815175;23;20725;-85
2021/03/08 18:54:28;;;;;;;27.15;13.88;;;;;;;6.17;67.97;102124.38;12806846;23;20019;-84
2021/03/08 18:59:38;;;;;;;26.92;13.50;;;;;;;6.06;65.54;102122.94;12815037;23;20387;-84
2021/03/08 19:04:50;;;;;;;24.88;13.70;;;;;;;6.35;65.56;102153.03;12761902;23;20466;-85
2021/03/08 19:10:02;;;;;;;21.88;13.00;;;;;;;5.98;65.38;102099.50;12816339;23;20740;-82
2021/03/08 19:15:24;;;;;;;29.45;13.75;;;;;;;6.30;65.76;102161.19;12780306;23;20059;-80
2021/03/08 19:20:25;;;;;;;31.30;14.77;;;;;;;6.16;67.32;102133.50;12819050;23;20023;-86
2021/03/08 19:25:25;;;;;;;27.52;13.50;;;;;;;6.20;67.08;102131.81;12842188;23;20462;-83
2021/03/08 19:30:26;;;;;;;22.90;13.98;;;;;;;5.06;66.71;101963.19;12838921;23;20415;-82
2021/03/08 19:35:27;;;;;;;24.13;13.68;;;;;;;6.14;67.21;102116.91;12842033;23;20004;-82
2021/03/08 19:40:28;;;;;;;31.70;14.82;;;;;;;5.86;68.51;102090.00;12820419;23;20009;-82
2021/03/08 19:45:32;;;;;;;29.05;15.45;;;;;;;5.95;69.12;102094.69;12816538;23;20019;-83
2021/03/08 19:50:32;;;;;;;35.20;17.67;;;;;;;5.53;69.88;102045.50;12846997;23;20025;-82
2021/03/08 19:55:33;;;;;;;28.25;15.80;;;;;;;6.12;69.86;102137.88;12823541;23;20036;-82
2021/03/08 20:00:33;;;;;;;31.58;17.17;;;;;;;6.15;70.27;102129.22;12844631;23;20458;-82
2021/03/08 20:05:34;;;;;;;37.20;18.05;;;;;;;5.40;70.08;102029.09;12797989;23;20071;-83
2021/03/08 20:10:35;;;;;;;30.45;16.52;;;;;;;6.00;70.82;102134.91;12795200;23;20012;-81
2021/03/08 20:15:35;;;;;;;28.30;16.10;;;;;;;5.95;70.97;102110.81;12813493;23;20081;-83
2021/03/08 20:20:36;;;;;;;33.28;15.40;;;;;;;5.26;71.90;102036.31;12782820;23;20012;-82
2021/03/08 20:25:36;;;;;;;26.83;15.25;;;;;;;5.89;71.63;102124.28;12844110;23;20016;-84
2021/03/08 20:30:37;;;;;;;31.95;15.55;;;;;;;5.85;73.04;102117.91;12849085;23;20016;-87
2021/03/08 20:35:38;;;;;;;28.92;16.05;;;;;;;5.65;73.38;102080.72;12875345;23;20032;-88
2021/03/08 20:40:38;;;;;;;30.17;16.45;;;;;;;5.43;75.66;102055.34;12848480;23;20139;-75
2021/03/08 20:45:39;;;;;;;31.42;17.63;;;;;;;5.76;77.40;102125.03;12847223;23;20028;-76
2021/03/08 20:50:39;;;;;;;31.85;17.40;;;;;;;5.79;78.87;102119.09;12846082;23;20068;-79
2021/03/08 20:55:40;;;;;;;28.70;17.02;;;;;;;5.78;79.98;102112.13;12817196;23;20028;-81
2021/03/08 21:00:41;;;;;;;28.35;17.45;;;;;;;5.58;81.72;102085.69;12838814;23;20028;-85
2021/03/08 21:05:41;;;;;;;29.40;17.20;;;;;;;5.23;83.58;102036.91;12820294;23;20017;-85
2021/03/08 21:10:42;;;;;;;28.45;16.15;;;;;;;5.58;84.59;102107.13;12811311;23;20501;-82
2021/03/08 21:15:42;;;;;;;23.60;13.77;;;;;;;5.33;84.29;102085.00;12840388;23;20084;-87
2021/03/08 21:20:43;;;;;;;21.25;11.63;;;;;;;5.13;83.01;102042.41;12858474;23;20012;-88
2021/03/08 21:25:45;;;;;;;23.55;14.00;;;;;;;5.60;86.61;102115.69;12863577;23;20093;-85
2021/03/08 21:30:45;;;;;;;23.52;10.52;;;;;;;5.38;83.82;102109.03;12853060;23;20091;-81
2021/03/08 21:35:47;;;;;;;16.63;9.48;;;;;;;5.29;84.15;102089.34;12819197;23;20017;-82
2021/03/08 21:40:47;;;;;;;21.67;10.55;;;;;;;5.23;84.99;102085.16;12839030;23;20025;-79
2021/03/08 21:45:49;;;;;;;18.40;9.15;;;;;;;4.96;85.21;102043.75;12846215;23;20027;-84
2021/03/08 21:50:49;;;;;;;18.27;9.73;;;;;;;4.80;85.61;102039.72;12819648;23;20013;-77
2021/03/08 21:55:50;;;;;;;21.27;11.82;;;;;;;4.88;88.86;102039.06;12846944;23;20008;-79
2021/03/08 22:00:51;;;;;;;23.98;11.77;;;;;;;5.19;89.97;102084.16;12849014;23;20092;-76
2021/03/08 22:05:51;;;;;;;19.77;11.52;;;;;;;5.18;90.83;102093.28;12848997;23;20016;-75
2021/03/08 22:10:52;;;;;;;19.88;12.18;;;;;;;4.78;91.82;102036.53;12821559;23;20139;-78
2021/03/08 22:15:52;;;;;;;24.58;11.85;;;;;;;5.07;91.50;102088.06;12818405;23;20063;-77
2021/03/08 22:20:53;;;;;;;25.88;10.65;;;;;;;5.07;91.97;102081.91;12848215;23;20005;-77
2021/03/08 22:25:53;;;;;;;22.13;10.98;;;;;;;4.96;90.98;102075.91;12842779;23;20031;-77
2021/03/08 22:30:54;;;;;;;20.85;10.45;;;;;;;4.60;91.36;102030.88;12841446;23;20040;-77
2021/03/08 22:35:54;;;;;;;20.38;10.68;;;;;;;4.98;92.43;102084.44;12848286;23;20070;-78
2021/03/08 22:40:55;;;;;;;23.08;10.65;;;;;;;4.82;93.57;102058.94;12846366;23;20001;-78
2021/03/08 22:45:55;;;;;;;16.92;9.02;;;;;;;4.83;93.37;102076.63;12823274;23;20013;-78
2021/03/08 22:50:57;;;;;;;;;;;;;;;4.87;94.19;102067.72;12851837;23;20000;-78
2021/03/08 22:55:59;;;;;;;22.90;11.40;;;;;;;4.40;96.87;102004.38;12851567;23;19908;-77
2021/03/08 23:00:59;;;;;;;24.00;13.13;;;;;;;4.22;99.11;101977.28;12848507;23;20248;-77
2021/03/08 23:05:59;;;;;;;23.00;12.80;;;;;;;4.37;99.90;102004.94;12825857;23;20435;-79
2021/03/08 23:11:00;;;;;;;28.90;14.27;;;;;;;4.29;100.00;101992.22;12824591;23;20229;-78
2021/03/08 23:16:01;;;;;;;26.17;13.10;;;;;;;4.73;100.00;102055.34;12851046;23;20435;-77
2021/03/08 23:21:01;;;;;;;24.40;13.50;;;;;;;4.71;99.84;102062.88;12849969;23;20016;-77
2021/03/08 23:26:02;;;;;;;24.58;14.07;;;;;;;4.63;99.83;102041.00;12853363;23;20066;-78